createdAt,value
2022-11-01T04:01:13.631Z,4.87
2022-11-01T04:03:41.423Z,5.83
2022-11-01T04:06:08.862Z,7.30
2022-11-01T04:08:39.531Z,6.03
2022-11-01T04:11:06.871Z,5.03
2022-11-01T04:13:34.049Z,4.77
2022-11-01T04:16:19.945Z,19.83
2022-11-01T04:19:13.476Z,16.87
2022-11-01T04:21:41.279Z,26.67
2022-11-01T04:24:09.438Z,16.20
2022-11-01T04:26:37.035Z,15.90
2022-11-01T04:29:04.172Z,7.60
2022-11-01T04:31:34.020Z,15.43
2022-11-01T04:34:03.394Z,15.43
2022-11-01T04:36:30.766Z,16.30
2022-11-01T04:38:58.639Z,14.37
2022-11-01T04:41:27.764Z,17.23
2022-11-01T04:43:56.939Z,18.90
2022-11-01T04:46:24.449Z,19.03
2022-11-01T04:48:51.629Z,16.53
2022-11-01T04:51:18.733Z,16.70
2022-11-01T04:53:45.882Z,23.63
2022-11-01T04:56:14.028Z,9.27
2022-11-01T04:58:45.040Z,17.47
2022-11-01T05:01:14.713Z,16.80
2022-11-01T05:03:42.649Z,46.30
2022-11-01T05:06:09.987Z,44.67
2022-11-01T05:08:37.234Z,14.53
2022-11-01T05:11:04.419Z,12.77
2022-11-01T05:13:31.894Z,28.63
2022-11-01T05:18:49.804Z,17.17
2022-11-01T05:21:17.155Z,20.03
2022-11-01T05:23:44.424Z,58.53
2022-11-01T05:26:11.523Z,18.97
2022-11-01T05:28:38.672Z,18.13
2022-11-01T05:31:05.878Z,21.90
2022-11-01T05:33:33.015Z,40.00
2022-11-01T05:36:02.892Z,10.73
2022-11-01T05:38:30.109Z,26.63
2022-11-01T05:40:57.210Z,18.63
2022-11-01T05:43:24.449Z,22.10
2022-11-01T05:45:51.656Z,15.53
2022-11-01T05:48:18.836Z,15.73
2022-11-01T05:50:46.928Z,22.87
2022-11-01T05:53:14.216Z,22.87
2022-11-01T05:55:41.966Z,22.93
2022-11-01T05:58:09.332Z,21.53
2022-11-01T06:00:36.791Z,17.80
2022-11-01T06:03:04.839Z,17.20
2022-11-01T06:05:32.925Z,27.40
2022-11-01T06:08:04.136Z,14.45
2022-11-01T06:10:32.270Z,10.53
2022-11-01T06:13:00.292Z,10.40
2022-11-01T06:15:27.807Z,18.03
2022-11-01T06:17:57.036Z,21.23
2022-11-01T06:20:25.876Z,17.77
2022-11-01T06:22:53.101Z,22.98
2022-11-01T06:25:20.335Z,24.30
2022-11-01T06:27:47.642Z,16.83
2022-11-01T06:30:14.958Z,18.65
2022-11-01T06:32:42.234Z,21.15
2022-11-01T06:35:10.432Z,20.48
2022-11-01T06:37:38.819Z,16.95
2022-11-01T06:40:07.259Z,24.85
2022-11-01T06:42:34.438Z,22.50
2022-11-01T06:45:01.561Z,35.85
2022-11-01T06:47:28.869Z,45.35
2022-11-01T06:49:56.032Z,30.00
2022-11-01T06:52:23.201Z,28.87
2022-11-01T06:54:50.391Z,20.02
2022-11-01T06:57:17.575Z,18.60
2022-11-01T06:59:44.996Z,20.95
2022-11-01T07:02:14.482Z,20.13
2022-11-01T07:04:42.181Z,20.60
2022-11-01T07:07:09.302Z,17.65
2022-11-01T07:09:36.425Z,22.70
2022-11-01T07:12:03.646Z,21.37
2022-11-01T07:14:31.107Z,20.90
2022-11-01T07:16:58.223Z,12.20
2022-11-01T07:19:25.532Z,16.83
2022-11-01T07:21:52.663Z,17.85
2022-11-01T07:24:19.967Z,18.58
2022-11-01T07:26:47.551Z,88.20
2022-11-01T07:29:14.837Z,23.95
2022-11-01T07:31:42.057Z,20.13
2022-11-01T07:34:09.192Z,22.75
2022-11-01T07:36:36.521Z,18.80
2022-11-01T07:39:03.827Z,18.58
2022-11-01T07:41:30.972Z,18.48
2022-11-01T07:43:58.122Z,11.20
2022-11-01T07:46:25.282Z,18.77
2022-11-01T07:48:52.494Z,22.20
2022-11-01T07:51:20.207Z,18.02
2022-11-01T07:53:47.715Z,39.72
2022-11-01T07:56:14.998Z,21.77
2022-11-01T07:58:43.560Z,20.35
2022-11-01T08:01:11.226Z,25.35
2022-11-01T08:03:38.704Z,49.63
2022-11-01T08:06:06.345Z,19.67
2022-11-01T08:08:33.521Z,26.42
2022-11-01T08:11:01.795Z,20.38
2022-11-01T08:13:29.686Z,23.60
2022-11-01T08:16:00.085Z,25.23
2022-11-01T08:18:27.259Z,24.80
2022-11-01T08:20:54.539Z,25.27
2022-11-01T08:23:21.743Z,34.92
2022-11-01T08:25:48.873Z,24.70
2022-11-01T08:28:19.477Z,22.05
2022-11-01T08:30:48.747Z,20.52
2022-11-01T08:33:15.953Z,30.02
2022-11-01T08:35:48.804Z,20.05
2022-11-01T08:38:17.567Z,26.52
2022-11-01T08:40:44.750Z,20.48
2022-11-01T08:43:11.883Z,13.93
2022-11-01T08:45:39.317Z,13.60
2022-11-01T08:48:06.745Z,29.92
2022-11-01T08:50:35.029Z,18.40
2022-11-01T08:53:20.233Z,12.60
2022-11-01T08:58:15.550Z,26.67
2022-11-01T09:00:44.090Z,24.02
2022-11-01T09:03:11.234Z,21.17
2022-11-01T09:05:38.618Z,17.40
2022-11-01T09:08:06.339Z,16.70
2022-11-01T09:10:34.116Z,19.30
2022-11-01T09:13:02.073Z,22.13
2022-11-01T09:15:29.854Z,16.35
2022-11-01T09:17:57.002Z,8.85
2022-11-01T09:20:24.294Z,17.40
2022-11-01T09:22:52.406Z,20.90
2022-11-01T09:25:20.104Z,18.42
2022-11-01T09:27:47.315Z,5.47
2022-11-01T09:30:14.515Z,16.10
2022-11-01T09:32:41.698Z,21.45
2022-11-01T09:35:09.086Z,29.67
2022-11-01T09:37:36.285Z,16.25
2022-11-01T09:40:04.104Z,13.43
2022-11-01T09:42:36.815Z,14.25
2022-11-01T09:45:20.164Z,22.08
2022-11-01T09:47:52.204Z,12.10
2022-11-01T09:50:25.120Z,13.35
2022-11-01T09:52:54.882Z,14.70
2022-11-01T09:55:42.883Z,8.23
2022-11-01T09:58:30.419Z,14.00
2022-11-01T10:01:13.558Z,19.00
2022-11-01T10:03:54.603Z,42.38
2022-11-01T10:06:26.854Z,16.70
2022-11-01T10:09:21.185Z,17.85
2022-11-01T10:12:00.121Z,24.73
2022-11-01T10:14:45.190Z,14.07
2022-11-01T10:17:20.721Z,4.13
2022-11-01T10:19:50.086Z,4.43
2022-11-01T10:22:19.754Z,7.78
2022-11-01T10:24:49.700Z,4.97
2022-11-01T10:27:26.205Z,4.45
2022-11-01T10:30:04.179Z,6.20
2022-11-01T10:32:45.734Z,9.32
2022-11-01T10:35:39.991Z,4.68
2022-11-01T10:41:35.320Z,4.90
2022-11-01T10:44:06.939Z,4.45
2022-11-01T10:46:42.231Z,4.80
2022-11-01T10:49:24.566Z,4.32
2022-11-01T10:51:56.531Z,4.82
2022-11-01T10:54:29.116Z,5.32
2022-11-01T10:57:01.501Z,5.07
2022-11-01T10:59:35.381Z,7.95
2022-11-01T11:02:23.566Z,3.92
2022-11-01T11:04:51.236Z,3.80
2022-11-01T11:07:23.251Z,4.90
2022-11-01T11:09:51.520Z,3.90
2022-11-01T11:12:21.638Z,4.35
2022-11-01T11:14:51.363Z,3.33
2022-11-01T11:17:43.509Z,5.32
2022-11-01T11:20:11.736Z,5.50
2022-11-01T11:22:42.099Z,4.53
2022-11-01T11:25:18.993Z,6.75
2022-11-01T11:27:48.595Z,4.30
2022-11-01T11:30:35.353Z,3.80
2022-11-01T11:33:03.036Z,3.45
2022-11-01T11:35:33.340Z,4.75
2022-11-01T11:38:03.655Z,3.17
2022-11-01T11:40:42.789Z,3.08
2022-11-01T11:43:23.533Z,3.95
2022-11-01T11:46:12.285Z,4.72
2022-11-01T11:48:57.281Z,3.95
2022-11-01T11:51:28.046Z,3.28
2022-11-01T11:54:13.630Z,3.47
2022-11-01T11:56:40.952Z,4.28
2022-11-01T11:59:22.488Z,3.95
2022-11-01T12:01:49.786Z,4.00
2022-11-01T12:04:19.124Z,5.32
2022-11-01T12:06:46.861Z,2.63
2022-11-01T12:09:38.992Z,4.43
2022-11-01T12:12:08.504Z,4.75
2022-11-01T12:14:38.733Z,2.78
2022-11-01T12:17:22.915Z,2.50
2022-11-01T12:19:52.420Z,2.17
2022-11-01T12:22:20.251Z,3.10
2022-11-01T12:24:52.050Z,3.30
2022-11-01T12:27:24.462Z,4.50
2022-11-01T12:30:10.032Z,4.85
2022-11-01T12:32:48.489Z,4.72
2022-11-01T12:35:38.166Z,4.63
2022-11-01T12:38:42.520Z,4.60
2022-11-01T12:41:43.810Z,4.63
2022-11-01T12:44:29.524Z,2.92
2022-11-01T12:47:28.656Z,2.72
2022-11-01T12:50:14.236Z,3.15
2022-11-01T12:53:01.217Z,2.63
2022-11-01T12:55:35.765Z,4.55
2022-11-01T12:58:04.305Z,4.97
2022-11-01T13:00:58.866Z,5.35
2022-11-01T13:03:56.867Z,3.65
2022-11-01T13:06:43.746Z,2.78
2022-11-01T13:09:30.341Z,5.53
2022-11-01T13:12:08.013Z,4.53
2022-11-01T13:15:03.706Z,4.40
2022-11-01T13:17:59.770Z,3.67
2022-11-01T13:20:45.909Z,2.45
2022-11-01T13:23:34.779Z,3.70
2022-11-01T13:26:20.729Z,2.88
2022-11-01T13:29:08.706Z,2.30
2022-11-01T13:31:49.296Z,3.20
2022-11-01T13:34:47.702Z,5.55
2022-11-01T13:37:43.582Z,4.07
2022-11-01T13:40:35.808Z,4.32
2022-11-01T13:43:19.655Z,4.05
2022-11-01T13:46:01.915Z,4.75
2022-11-01T13:48:56.694Z,3.20
2022-11-01T13:51:47.018Z,3.50
2022-11-01T13:54:47.220Z,4.43
2022-11-01T13:57:16.964Z,2.80
2022-11-01T13:59:55.642Z,4.38
2022-11-01T14:02:22.938Z,6.50
2022-11-01T14:05:10.603Z,4.63
2022-11-01T14:07:43.486Z,5.93
2022-11-01T14:10:22.754Z,4.90
2022-11-01T14:13:17.490Z,2.92
2022-11-01T14:15:53.535Z,3.70
2022-11-01T14:18:21.252Z,4.63
2022-11-01T14:20:58.578Z,6.10
2022-11-01T14:23:28.536Z,2.65
2022-11-01T14:26:20.535Z,8.13
2022-11-01T14:28:50.211Z,7.32
2022-11-01T14:31:22.041Z,4.43
2022-11-01T14:33:49.747Z,3.42
2022-11-01T14:36:20.881Z,5.22
2022-11-01T14:39:06.960Z,3.88
2022-11-01T14:41:38.038Z,3.67
2022-11-01T14:44:12.236Z,4.93
2022-11-01T14:46:46.487Z,4.32
2022-11-01T14:49:37.225Z,6.18
2022-11-01T14:52:26.445Z,3.67
2022-11-01T14:55:16.861Z,6.88
2022-11-01T14:57:45.341Z,6.60
2022-11-01T15:00:30.605Z,3.42
2022-11-01T15:03:00.750Z,4.43
2022-11-01T15:05:28.345Z,5.03
2022-11-01T15:07:58.911Z,6.22
2022-11-01T15:10:26.764Z,4.97
2022-11-01T15:13:01.522Z,7.13
2022-11-01T15:15:37.904Z,6.60
2022-11-01T15:18:17.319Z,4.43
2022-11-01T15:20:54.725Z,7.25
2022-11-01T15:23:28.694Z,4.15
2022-11-01T15:25:58.706Z,4.45
2022-11-01T15:28:37.098Z,3.58
2022-11-01T15:31:06.390Z,5.93
2022-11-01T15:33:33.804Z,4.80
2022-11-01T15:36:04.225Z,7.90
2022-11-01T15:38:35.744Z,3.63
2022-11-01T15:41:28.295Z,3.92
2022-11-01T15:44:06.288Z,3.00
2022-11-01T15:46:39.147Z,5.28
2022-11-01T15:49:21.053Z,5.10
2022-11-01T15:52:07.458Z,7.20
2022-11-01T15:55:02.430Z,4.60
2022-11-01T15:57:36.973Z,7.53
2022-11-01T16:00:17.824Z,4.78
2022-11-01T16:03:06.177Z,4.70
2022-11-01T16:05:49.218Z,6.05
2022-11-01T16:08:29.962Z,5.47
2022-11-01T16:10:57.575Z,5.00
2022-11-01T16:13:24.827Z,6.00
2022-11-01T16:16:10.217Z,9.05
2022-11-01T16:18:44.985Z,7.43
2022-11-01T16:21:20.918Z,6.90
2022-11-01T16:24:04.004Z,9.52
2022-11-01T16:26:34.129Z,6.20
2022-11-01T16:29:01.522Z,4.93
2022-11-01T16:31:30.734Z,4.78
2022-11-01T16:33:58.001Z,7.40
2022-11-01T16:36:36.676Z,6.68
2022-11-01T16:39:31.272Z,5.40
2022-11-01T16:41:59.180Z,5.90
2022-11-01T16:44:26.512Z,5.57
2022-11-01T16:46:55.047Z,8.13
2022-11-01T16:49:27.931Z,5.28
2022-11-01T16:51:56.607Z,4.78
2022-11-01T16:54:27.039Z,3.58
2022-11-01T16:56:58.280Z,3.88
2022-11-01T16:59:31.745Z,4.32
2022-11-01T17:01:59.919Z,2.97
2022-11-01T17:04:28.496Z,3.15
2022-11-01T17:06:58.217Z,4.00
2022-11-01T17:09:29.351Z,3.92
2022-11-01T17:11:56.468Z,3.50
2022-11-01T17:14:23.936Z,3.80
2022-11-01T17:16:52.563Z,5.45
2022-11-01T17:19:28.570Z,6.65
2022-11-01T17:21:57.641Z,4.97
2022-11-01T17:24:27.417Z,3.80
2022-11-01T17:26:57.877Z,3.83
2022-11-01T17:29:25.021Z,4.32
2022-11-01T17:31:52.197Z,4.38
2022-11-01T17:34:19.379Z,3.60
2022-11-01T17:36:49.316Z,4.57
2022-11-01T17:39:16.655Z,3.60
2022-11-01T17:41:44.042Z,4.13
2022-11-01T17:44:14.228Z,3.38
2022-11-01T17:46:42.730Z,3.00
2022-11-01T17:49:14.467Z,2.85
2022-11-01T17:51:42.935Z,3.42
2022-11-01T17:54:10.428Z,2.92
2022-11-01T17:56:37.735Z,2.90
2022-11-01T17:59:04.904Z,2.38
2022-11-01T18:01:32.395Z,3.22
2022-11-01T18:03:59.683Z,6.82
2022-11-01T18:06:26.867Z,2.88
2022-11-01T18:08:54.149Z,3.22
2022-11-01T18:11:48.160Z,5.32
2022-11-01T18:14:21.087Z,3.60
2022-11-01T18:16:54.871Z,3.80
2022-11-01T18:19:22.223Z,7.50
2022-11-01T18:22:19.866Z,4.38
2022-11-01T18:24:52.213Z,5.35
2022-11-01T18:27:28.383Z,5.30
2022-11-01T18:29:55.460Z,6.03
2022-11-01T18:32:41.242Z,6.70
2022-11-01T18:35:31.715Z,8.15
2022-11-01T18:38:09.644Z,6.07
2022-11-01T18:40:45.573Z,7.22
2022-11-01T18:43:12.698Z,5.22
2022-11-01T18:46:04.476Z,5.07
2022-11-01T18:48:28.810Z,6.72
2022-11-01T18:51:05.924Z,5.82
2022-11-01T18:53:34.512Z,4.57
2022-11-01T18:56:14.142Z,6.63
2022-11-01T18:58:41.358Z,6.40
2022-11-01T19:01:19.968Z,4.72
2022-11-01T19:03:59.854Z,4.63
2022-11-01T19:06:27.394Z,4.88
2022-11-01T19:08:57.975Z,4.40
2022-11-01T19:11:29.836Z,5.90
2022-11-01T19:14:00.582Z,7.03
2022-11-01T19:16:27.886Z,5.50
2022-11-01T19:18:55.074Z,4.82
2022-11-01T19:21:23.567Z,6.43
2022-11-01T19:23:54.670Z,4.80
2022-11-01T19:26:27.799Z,4.45
2022-11-01T19:28:55.073Z,4.93
2022-11-01T19:31:33.505Z,5.70
2022-11-01T19:34:13.794Z,4.55
2022-11-01T19:36:44.256Z,3.90
2022-11-01T19:39:29.674Z,4.75
2022-11-01T19:42:31.344Z,5.70
2022-11-01T19:45:25.177Z,4.50
2022-11-01T19:47:52.390Z,5.15
2022-11-01T19:50:23.988Z,4.28
2022-11-01T19:52:53.294Z,4.75
2022-11-01T19:55:44.268Z,4.28
2022-11-01T19:58:26.022Z,4.28
2022-11-01T20:01:03.544Z,4.57
2022-11-01T20:03:42.286Z,5.43
2022-11-01T20:06:14.256Z,4.55
2022-11-01T20:08:42.455Z,8.07
2022-11-01T20:11:09.830Z,5.97
2022-11-01T20:13:36.928Z,8.00
2022-11-01T20:16:04.080Z,9.73
2022-11-01T20:18:31.480Z,9.50
2022-11-01T20:20:59.007Z,9.07
2022-11-01T20:23:27.153Z,5.97
2022-11-01T20:25:55.258Z,10.25
2022-11-01T20:28:22.401Z,7.53
2022-11-01T20:30:49.604Z,12.75
2022-11-01T20:33:16.948Z,9.40
2022-11-01T20:35:44.300Z,9.02
2022-11-01T20:38:11.469Z,11.30
2022-11-01T20:40:38.675Z,9.63
2022-11-01T20:43:06.942Z,9.63
2022-11-01T20:45:34.975Z,18.27
2022-11-01T20:48:03.378Z,14.10
2022-11-01T20:50:30.501Z,15.65
2022-11-01T20:52:57.617Z,14.30
2022-11-01T20:55:24.789Z,15.18
2022-11-01T20:57:52.399Z,12.05
2022-11-01T21:00:19.854Z,15.93
2022-11-01T21:02:48.017Z,14.27
2022-11-01T21:05:15.107Z,20.50
2022-11-01T21:07:47.758Z,23.33
2022-11-01T21:10:37.251Z,22.95
2022-11-01T21:13:29.609Z,24.23
2022-11-01T21:16:01.728Z,22.30
2022-11-01T21:18:35.074Z,47.03
2022-11-01T21:21:25.278Z,26.55
2022-11-01T21:23:52.383Z,22.73
2022-11-01T21:26:24.869Z,19.98
2022-11-01T21:28:58.618Z,18.48
2022-11-01T21:31:31.650Z,17.75
2022-11-01T21:34:19.489Z,14.35
2022-11-01T21:36:50.865Z,12.13
2022-11-01T21:39:25.331Z,8.10
2022-11-01T21:41:57.218Z,7.40
2022-11-01T21:44:27.051Z,7.97
2022-11-01T21:46:57.020Z,9.57
2022-11-01T21:49:29.655Z,7.22
2022-11-01T21:52:00.376Z,12.88
2022-11-01T21:54:30.088Z,9.48
2022-11-01T21:56:57.698Z,12.48
2022-11-01T21:59:26.033Z,10.52
